Time;durP1;ratioP1;P1;durP2;ratioP2;P2;SDS_P1;SDS_P2;PMS_P1;PMS_P2;Temp;Humidity;BMP_temperature;BMP_pressure;BME280_temperature;BME280_humidity;BME280_pressure;Samples;Min_cycle;Max_cycle;Signal;HPM_P1;HPM_P2
2023/05/29 00:00:17;;;;;;;3.50;2.22;;;;;;;;;;5054454;28;20021;-61
2023/05/29 00:02:44;;;;;;;4.78;2.17;;;;;;;;;;5054366;28;20021;-61
2023/05/29 00:05:11;;;;;;;3.55;2.85;;;;;;;;;;5054032;28;20029;-61
2023/05/29 00:07:37;;;;;;;4.25;2.67;;;;;;;;;;5054325;28;20029;-61
2023/05/29 00:10:04;;;;;;;5.10;2.75;;;;;;;;;;5054331;28;20098;-61
2023/05/29 00:12:30;;;;;;;4.15;2.38;;;;;;;;;;5054548;28;20033;-61
2023/05/29 00:14:57;;;;;;;3.88;2.65;;;;;;;;;;5053947;28;20041;-61
2023/05/29 00:17:23;;;;;;;4.00;2.45;;;;;;;;;;5054133;28;20082;-61
2023/05/29 00:19:49;;;;;;;4.55;2.58;;;;;;;;;;5054205;28;20029;-61
2023/05/29 00:22:15;;;;;;;4.10;2.58;;;;;;;;;;5054118;28;20410;-61
2023/05/29 00:24:42;;;;;;;4.03;2.88;;;;;;;;;;5054375;28;20029;-61
2023/05/29 00:27:08;;;;;;;4.75;2.65;;;;;;;;;;5054829;28;20033;-61
2023/05/29 00:29:35;;;;;;;4.57;2.83;;;;;;;;;;5053958;28;20414;-61
2023/05/29 00:32:01;;;;;;;3.97;2.63;;;;;;;;;;5054475;28;20029;-61
2023/05/29 00:34:27;;;;;;;4.07;2.28;;;;;;;;;;5053853;28;20021;-61
2023/05/29 00:36:57;;;;;;;4.82;2.83;;;;;;;;;;5054251;28;20025;-61
2023/05/29 00:39:23;;;;;;;3.85;2.20;;;;;;;;;;5053829;28;20135;-61
2023/05/29 00:41:52;;;;;;;3.63;2.10;;;;;;;;;;5053855;28;20471;-61
2023/05/29 00:44:18;;;;;;;5.10;2.72;;;;;;;;;;5053763;28;20028;-61
2023/05/29 00:46:45;;;;;;;5.05;2.83;;;;;;;;;;5054034;28;20028;-61
2023/05/29 00:49:11;;;;;;;3.85;2.90;;;;;;;;;;5054459;28;20048;-61
2023/05/29 00:51:38;;;;;;;4.30;2.53;;;;;;;;;;5053656;28;20025;-61
2023/05/29 00:54:05;;;;;;;4.20;2.40;;;;;;;;;;5053704;28;20025;-61
2023/05/29 00:56:31;;;;;;;4.00;2.55;;;;;;;;;;5053992;28;20456;-61
2023/05/29 00:58:57;;;;;;;3.28;2.47;;;;;;;;;;5053158;28;20112;-61
2023/05/29 01:01:24;;;;;;;4.18;2.40;;;;;;;;;;5054183;28;20064;-61
2023/05/29 01:03:50;;;;;;;7.65;3.05;;;;;;;;;;5053562;28;20025;-61
2023/05/29 01:06:16;;;;;;;3.05;2.10;;;;;;;;;;5053908;28;20048;-61
2023/05/29 01:08:42;;;;;;;3.20;2.20;;;;;;;;;;5053553;28;20033;-61
2023/05/29 01:11:34;;;;;;;3.83;2.58;;;;;;;;;;5054099;28;20481;-61
2023/05/29 01:14:03;;;;;;;4.32;2.88;;;;;;;;;;5044854;28;20128;-61
2023/05/29 01:16:36;;;;;;;3.42;2.58;;;;;;;;;;5055460;28;20029;-61
2023/05/29 01:19:11;;;;;;;5.18;2.58;;;;;;;;;;5058071;28;20025;-61
2023/05/29 01:21:40;;;;;;;4.07;2.40;;;;;;;;;;5057561;28;20529;-61
2023/05/29 01:24:06;;;;;;;4.20;2.65;;;;;;;;;;5057972;28;20020;-61
2023/05/29 01:26:49;;;;;;;3.97;2.60;;;;;;;;;;5057122;28;20467;-61
2023/05/29 01:29:19;;;;;;;6.28;2.63;;;;;;;;;;5057882;28;20033;-61
2023/05/29 01:31:46;;;;;;;3.90;2.72;;;;;;;;;;5057575;28;20029;-61
2023/05/29 01:34:12;;;;;;;3.58;2.60;;;;;;;;;;5057279;28;20036;-61
2023/05/29 01:36:38;;;;;;;5.28;2.55;;;;;;;;;;5057842;28;20024;-61
2023/05/29 01:39:05;;;;;;;5.53;2.22;;;;;;;;;;5057694;28;20063;-61
2023/05/29 01:41:31;;;;;;;4.93;2.40;;;;;;;;;;5057098;28;20056;-61
2023/05/29 01:43:59;;;;;;;4.95;2.30;;;;;;;;;;5057674;28;20028;-61
2023/05/29 01:46:25;;;;;;;3.22;2.38;;;;;;;;;;5057566;28;20048;-61
2023/05/29 01:48:51;;;;;;;5.30;2.30;;;;;;;;;;5057506;28;20029;-61
2023/05/29 01:51:17;;;;;;;3.67;2.50;;;;;;;;;;5057257;28;20029;-61
2023/05/29 01:53:44;;;;;;;4.40;2.78;;;;;;;;;;5057383;28;20470;-61
2023/05/29 01:56:10;;;;;;;4.45;2.92;;;;;;;;;;5057443;28;20040;-61
2023/05/29 01:58:37;;;;;;;2.95;1.83;;;;;;;;;;5056660;28;20052;-61
2023/05/29 02:01:03;;;;;;;3.70;2.55;;;;;;;;;;5057100;28;20029;-61
2023/05/29 02:03:29;;;;;;;3.47;2.53;;;;;;;;;;5056698;28;20024;-61
2023/05/29 02:05:59;;;;;;;4.47;2.35;;;;;;;;;;5057276;28;20032;-61
2023/05/29 02:08:25;;;;;;;4.27;2.87;;;;;;;;;;5056580;28;20024;-61
2023/05/29 02:10:51;;;;;;;3.10;2.10;;;;;;;;;;5056655;28;20375;-61
2023/05/29 02:13:17;;;;;;;3.90;2.78;;;;;;;;;;5056912;28;20025;-61
2023/05/29 02:15:43;;;;;;;4.10;2.58;;;;;;;;;;5056844;28;20053;-61
2023/05/29 02:18:11;;;;;;;4.05;2.38;;;;;;;;;;5056474;28;20380;-61
2023/05/29 02:20:37;;;;;;;5.18;2.10;;;;;;;;;;5057144;28;20041;-61
2023/05/29 02:23:05;;;;;;;4.35;2.20;;;;;;;;;;5056278;28;20052;-61
2023/05/29 02:25:31;;;;;;;4.45;2.65;;;;;;;;;;5056643;28;20520;-61
2023/05/29 02:27:57;;;;;;;5.10;2.47;;;;;;;;;;5056289;28;20033;-61
2023/05/29 02:30:23;;;;;;;4.72;2.50;;;;;;;;;;5056270;28;20029;-61
2023/05/29 02:32:49;;;;;;;3.63;2.38;;;;;;;;;;5055928;28;20352;-61
2023/05/29 02:35:17;;;;;;;4.10;2.60;;;;;;;;;;5056605;28;20410;-61
2023/05/29 02:37:43;;;;;;;3.35;2.22;;;;;;;;;;5056916;28;20371;-61
2023/05/29 02:40:09;;;;;;;4.32;2.92;;;;;;;;;;5056775;28;20074;-61
2023/05/29 02:42:35;;;;;;;5.07;3.20;;;;;;;;;;5055917;28;20101;-61
2023/05/29 02:45:01;;;;;;;3.17;2.28;;;;;;;;;;5056498;28;20029;-61
2023/05/29 02:47:27;;;;;;;4.15;2.85;;;;;;;;;;5056202;28;20128;-61
2023/05/29 02:49:53;;;;;;;4.22;2.65;;;;;;;;;;5055585;28;20056;-61
2023/05/29 02:52:19;;;;;;;2.83;2.13;;;;;;;;;;5055833;28;20032;-61
2023/05/29 02:54:45;;;;;;;3.38;2.50;;;;;;;;;;5056244;28;20024;-61
2023/05/29 02:57:11;;;;;;;7.38;2.15;;;;;;;;;;5056273;28;20137;-61
2023/05/29 02:59:37;;;;;;;3.58;2.33;;;;;;;;;;5056115;28;20380;-61
2023/05/29 03:02:03;;;;;;;5.10;3.08;;;;;;;;;;5055929;28;20463;-61
2023/05/29 03:04:29;;;;;;;3.83;2.58;;;;;;;;;;5056156;28;20021;-61
2023/05/29 03:06:55;;;;;;;4.47;2.92;;;;;;;;;;5055822;28;20032;-61
2023/05/29 03:09:21;;;;;;;4.30;2.55;;;;;;;;;;5056075;28;20114;-61
2023/05/29 03:11:49;;;;;;;3.63;2.40;;;;;;;;;;5055488;28;20104;-61
2023/05/29 03:14:15;;;;;;;4.50;2.53;;;;;;;;;;5055969;28;20048;-61
2023/05/29 03:16:41;;;;;;;5.38;2.97;;;;;;;;;;5055286;28;20170;-61
2023/05/29 03:19:07;;;;;;;3.30;2.15;;;;;;;;;;5055320;28;20040;-61
2023/05/29 03:21:35;;;;;;;4.65;2.80;;;;;;;;;;5055228;28;20557;-61
2023/05/29 03:24:02;;;;;;;3.72;2.35;;;;;;;;;;5054903;28;20099;-61
2023/05/29 03:26:28;;;;;;;2.67;2.08;;;;;;;;;;5055691;28;20383;-61
2023/05/29 03:28:55;;;;;;;3.60;2.42;;;;;;;;;;5054722;28;20033;-61
2023/05/29 03:31:21;;;;;;;5.70;2.15;;;;;;;;;;5055079;28;20025;-61
2023/05/29 03:33:47;;;;;;;5.25;2.35;;;;;;;;;;5055641;28;20056;-61
2023/05/29 03:36:13;;;;;;;3.83;2.40;;;;;;;;;;5055427;28;20032;-61
2023/05/29 03:38:39;;;;;;;5.47;2.30;;;;;;;;;;5055239;28;20025;-61
2023/05/29 03:41:05;;;;;;;7.15;2.88;;;;;;;;;;5055446;28;20029;-61
2023/05/29 03:43:31;;;;;;;4.07;2.42;;;;;;;;;;5054947;28;20513;-61
2023/05/29 03:45:57;;;;;;;5.65;2.78;;;;;;;;;;5055511;28;20104;-61
2023/05/29 03:48:23;;;;;;;3.70;2.67;;;;;;;;;;5054784;28;20037;-61
2023/05/29 03:50:49;;;;;;;4.80;2.58;;;;;;;;;;5054853;28;20075;-61
2023/05/29 03:53:15;;;;;;;4.95;2.47;;;;;;;;;;5054772;28;20033;-61
2023/05/29 03:55:41;;;;;;;4.95;2.60;;;;;;;;;;5055213;28;20032;-61
2023/05/29 03:58:07;;;;;;;3.85;1.85;;;;;;;;;;5054870;28;20375;-61
2023/05/29 04:00:33;;;;;;;3.97;2.35;;;;;;;;;;5054885;28;20110;-61
2023/05/29 04:02:59;;;;;;;3.22;2.10;;;;;;;;;;5055081;28;20103;-61
2023/05/29 04:05:25;;;;;;;3.97;2.53;;;;;;;;;;5054473;28;20508;-61
2023/05/29 04:07:52;;;;;;;3.63;2.65;;;;;;;;;;5055240;28;20037;-61
2023/05/29 04:10:18;;;;;;;5.40;2.80;;;;;;;;;;5054149;28;20029;-61
2023/05/29 04:12:44;;;;;;;3.00;2.15;;;;;;;;;;5054112;28;20048;-61
2023/05/29 04:15:10;;;;;;;3.22;2.25;;;;;;;;;;5054498;28;20056;-61
2023/05/29 04:17:36;;;;;;;3.63;2.58;;;;;;;;;;5054053;28;20530;-61
2023/05/29 04:20:08;;;;;;;4.13;2.47;;;;;;;;;;5054788;28;20052;-61
2023/05/29 04:22:34;;;;;;;4.95;2.70;;;;;;;;;;5054740;28;20031;-61
2023/05/29 04:25:00;;;;;;;6.88;2.22;;;;;;;;;;5054475;28;20033;-61
2023/05/29 04:27:25;;;;;;;3.35;2.40;;;;;;;;;;5054159;28;20395;-61
2023/05/29 04:29:51;;;;;;;4.95;3.03;;;;;;;;;;5054120;28;20053;-61
2023/05/29 04:32:18;;;;;;;4.22;3.28;;;;;;;;;;5054088;28;20375;-61
2023/05/29 04:34:44;;;;;;;5.97;2.58;;;;;;;;;;5053962;28;20029;-61
2023/05/29 04:37:10;;;;;;;4.70;2.97;;;;;;;;;;5054318;28;20098;-61
2023/05/29 04:39:36;;;;;;;5.32;2.72;;;;;;;;;;5053665;28;20107;-61
2023/05/29 04:42:02;;;;;;;4.60;2.78;;;;;;;;;;5053965;28;20120;-61
2023/05/29 04:44:29;;;;;;;3.90;2.42;;;;;;;;;;5053879;28;20485;-61
2023/05/29 04:46:56;;;;;;;4.53;3.15;;;;;;;;;;5054428;28;20115;-61
2023/05/29 04:49:22;;;;;;;6.50;3.58;;;;;;;;;;5053750;28;20163;-61
2023/05/29 04:51:52;;;;;;;5.03;3.13;;;;;;;;;;5054046;28;20112;-61
2023/05/29 04:54:19;;;;;;;5.15;3.03;;;;;;;;;;5053791;28;20017;-61
2023/05/29 04:56:45;;;;;;;5.07;2.92;;;;;;;;;;5053832;28;20021;-61
2023/05/29 04:59:12;;;;;;;4.75;3.13;;;;;;;;;;5054020;28;20033;-61
2023/05/29 05:01:38;;;;;;;3.85;2.63;;;;;;;;;;5054189;28;20029;-61
2023/05/29 05:04:04;;;;;;;3.78;2.47;;;;;;;;;;5053591;28;20411;-61
2023/05/29 05:06:30;;;;;;;3.67;2.75;;;;;;;;;;5054497;28;20186;-61
2023/05/29 05:08:56;;;;;;;3.67;2.75;;;;;;;;;;5053604;28;20112;-61
2023/05/29 05:11:22;;;;;;;4.32;2.67;;;;;;;;;;5054359;28;20024;-61
2023/05/29 05:13:49;;;;;;;4.25;3.22;;;;;;;;;;5053472;28;20025;-61
2023/05/29 05:16:16;;;;;;;5.13;2.90;;;;;;;;;;5054144;28;20091;-61
2023/05/29 05:18:42;;;;;;;4.32;3.22;;;;;;;;;;5053518;28;20029;-61
2023/05/29 05:21:08;;;;;;;9.10;3.22;;;;;;;;;;5053264;28;20025;-61
2023/05/29 05:23:34;;;;;;;7.00;3.05;;;;;;;;;;5053541;28;20029;-61
2023/05/29 05:26:00;;;;;;;3.85;2.67;;;;;;;;;;5053822;28;20033;-61
2023/05/29 05:28:26;;;;;;;6.47;3.50;;;;;;;;;;5053379;28;20078;-61
2023/05/29 05:30:52;;;;;;;4.35;3.08;;;;;;;;;;5053514;28;20378;-61
2023/05/29 05:33:18;;;;;;;3.92;2.75;;;;;;;;;;5053597;28;20451;-61
2023/05/29 05:35:44;;;;;;;5.75;3.22;;;;;;;;;;5053334;28;20036;-61
2023/05/29 05:38:10;;;;;;;3.92;2.90;;;;;;;;;;5053054;28;20037;-61
2023/05/29 05:40:36;;;;;;;4.35;2.60;;;;;;;;;;5053405;28;20511;-61
2023/05/29 05:43:02;;;;;;;6.47;3.42;;;;;;;;;;5053362;28;20029;-61
2023/05/29 05:45:28;;;;;;;4.72;2.97;;;;;;;;;;5052973;28;20033;-61
2023/05/29 05:47:54;;;;;;;6.32;3.13;;;;;;;;;;5053768;28;20029;-61
2023/05/29 05:50:21;;;;;;;6.32;2.97;;;;;;;;;;5053474;28;20447;-61
2023/05/29 05:52:47;;;;;;;5.80;3.00;;;;;;;;;;5053168;28;20021;-61
2023/05/29 05:55:13;;;;;;;5.10;2.65;;;;;;;;;;5053375;28;20024;-61
2023/05/29 05:57:38;;;;;;;3.83;3.00;;;;;;;;;;5053705;28;20029;-61
2023/05/29 06:00:12;;;;;;;4.55;3.25;;;;;;;;;;5053323;28;20432;-61
2023/05/29 06:02:42;;;;;;;3.63;2.85;;;;;;;;;;5055722;28;20029;-61
2023/05/29 06:05:09;;;;;;;3.93;2.70;;;;;;;;;;5056810;28;20104;-61
2023/05/29 06:07:35;;;;;;;5.18;3.40;;;;;;;;;;5057201;28;20367;-61
2023/05/29 06:10:01;;;;;;;4.90;3.28;;;;;;;;;;5057262;28;20530;-61
2023/05/29 06:12:27;;;;;;;5.50;2.95;;;;;;;;;;5056725;28;20020;-61
2023/05/29 06:14:53;;;;;;;6.25;2.90;;;;;;;;;;5057092;28;20060;-61
2023/05/29 06:17:19;;;;;;;6.95;2.95;;;;;;;;;;5056599;28;20025;-61
2023/05/29 06:19:45;;;;;;;4.38;3.40;;;;;;;;;;5057094;28;20359;-61
2023/05/29 06:22:11;;;;;;;4.35;3.08;;;;;;;;;;5056378;28;20017;-61
2023/05/29 06:24:37;;;;;;;6.13;3.03;;;;;;;;;;5056393;28;20021;-61
2023/05/29 06:27:03;;;;;;;6.47;3.00;;;;;;;;;;5056077;28;20096;-61
2023/05/29 06:29:29;;;;;;;4.95;3.10;;;;;;;;;;5056362;28;20025;-61
2023/05/29 06:31:55;;;;;;;8.63;3.42;;;;;;;;;;5056845;28;20028;-61
2023/05/29 06:34:21;;;;;;;5.88;3.10;;;;;;;;;;5055949;28;20100;-61
2023/05/29 06:36:47;;;;;;;4.15;2.85;;;;;;;;;;5056755;28;20021;-61
2023/05/29 06:39:15;;;;;;;4.68;3.33;;;;;;;;;;5056456;28;20112;-61
2023/05/29 06:41:41;;;;;;;7.22;3.90;;;;;;;;;;5056827;28;20442;-61
2023/05/29 06:44:07;;;;;;;3.80;2.63;;;;;;;;;;5056282;28;20111;-61
2023/05/29 06:46:33;;;;;;;5.55;3.25;;;;;;;;;;5056341;28;20032;-61
2023/05/29 06:48:59;;;;;;;8.00;3.45;;;;;;;;;;5055847;28;20033;-61
2023/05/29 06:51:25;;;;;;;5.43;2.90;;;;;;;;;;5055901;28;20126;-61
2023/05/29 06:53:51;;;;;;;5.00;3.53;;;;;;;;;;5056318;28;20166;-61
2023/05/29 06:56:17;;;;;;;5.68;3.78;;;;;;;;;;5056270;28;20021;-61
2023/05/29 06:58:44;;;;;;;5.82;3.60;;;;;;;;;;5056088;28;20028;-61
2023/05/29 07:01:10;;;;;;;6.20;3.13;;;;;;;;;;5055719;28;20056;-61
2023/05/29 07:03:36;;;;;;;4.45;2.90;;;;;;;;;;5055474;28;20103;-61
2023/05/29 07:06:02;;;;;;;4.28;3.05;;;;;;;;;;5055372;28;20479;-61
2023/05/29 07:08:28;;;;;;;4.50;3.33;;;;;;;;;;5055401;28;20040;-61
2023/05/29 07:10:55;;;;;;;5.40;3.25;;;;;;;;;;5056039;28;20021;-61
2023/05/29 07:13:21;;;;;;;5.55;3.38;;;;;;;;;;5054154;28;20470;-61
2023/05/29 07:15:48;;;;;;;5.55;2.95;;;;;;;;;;5055795;28;20084;-61
2023/05/29 07:18:14;;;;;;;5.95;3.38;;;;;;;;;;5055498;28;20025;-61
2023/05/29 07:20:40;;;;;;;4.55;3.20;;;;;;;;;;5055333;28;20120;-61
2023/05/29 07:23:06;;;;;;;5.93;3.28;;;;;;;;;;5055792;28;20380;-61
2023/05/29 07:25:32;;;;;;;5.55;3.03;;;;;;;;;;5055591;28;20028;-61
2023/05/29 07:27:58;;;;;;;4.90;3.30;;;;;;;;;;5055796;28;20033;-61
2023/05/29 07:30:24;;;;;;;3.13;2.00;;;;;;;;;;5055805;28;20021;-61
2023/05/29 07:32:50;;;;;;;6.45;3.67;;;;;;;;;;5055073;28;20033;-61
2023/05/29 07:35:16;;;;;;;4.20;2.95;;;;;;;;;;5055676;28;20021;-61
2023/05/29 07:37:42;;;;;;;4.18;3.17;;;;;;;;;;5055034;28;20025;-61
2023/05/29 07:40:09;;;;;;;8.27;3.15;;;;;;;;;;5054705;28;20110;-61
2023/05/29 07:42:35;;;;;;;4.82;3.40;;;;;;;;;;5054927;28;20025;-61
2023/05/29 07:45:00;;;;;;;4.50;3.25;;;;;;;;;;5054839;28;20021;-61
2023/05/29 07:47:26;;;;;;;8.30;3.33;;;;;;;;;;5054865;28;20381;-61
2023/05/29 07:49:52;;;;;;;6.38;3.85;;;;;;;;;;5054828;28;20347;-61
2023/05/29 07:52:19;;;;;;;4.20;2.88;;;;;;;;;;5055571;28;20021;-61
2023/05/29 07:54:45;;;;;;;3.78;2.83;;;;;;;;;;5055007;28;20048;-61
2023/05/29 07:57:11;;;;;;;4.60;3.67;;;;;;;;;;5054572;28;20475;-61
2023/05/29 07:59:38;;;;;;;6.18;3.20;;;;;;;;;;5054266;28;20108;-61
2023/05/29 08:02:04;;;;;;;3.88;3.47;;;;;;;;;;5054533;28;20025;-59
2023/05/29 08:04:31;;;;;;;5.38;3.15;;;;;;;;;;5054566;28;20059;-59
2023/05/29 08:06:57;;;;;;;5.03;2.97;;;;;;;;;;5055336;28;20108;-59
2023/05/29 08:09:22;;;;;;;4.90;2.75;;;;;;;;;;5054294;28;20450;-59
2023/05/29 08:11:48;;;;;;;4.68;3.08;;;;;;;;;;5054397;28;20033;-59
2023/05/29 08:14:15;;;;;;;7.22;3.83;;;;;;;;;;5054081;28;20083;-60
2023/05/29 08:16:41;;;;;;;4.80;3.35;;;;;;;;;;5053915;28;20497;-60
2023/05/29 08:19:08;;;;;;;7.85;3.42;;;;;;;;;;5054451;28;20032;-60
2023/05/29 08:21:34;;;;;;;8.93;3.92;;;;;;;;;;5054033;28;20378;-59
2023/05/29 08:24:00;;;;;;;4.90;3.05;;;;;;;;;;5054603;28;20036;-59
2023/05/29 08:26:27;;;;;;;4.38;3.22;;;;;;;;;;5054122;28;20121;-59
2023/05/29 08:28:52;;;;;;;5.70;3.00;;;;;;;;;;5054259;28;20340;-59
2023/05/29 08:31:19;;;;;;;7.68;3.60;;;;;;;;;;5054461;28;20063;-59
2023/05/29 08:33:45;;;;;;;4.22;3.00;;;;;;;;;;5054202;28;20036;-59
2023/05/29 08:36:11;;;;;;;4.38;3.17;;;;;;;;;;5054537;28;20094;-59
2023/05/29 08:38:37;;;;;;;4.55;3.42;;;;;;;;;;5054279;28;20024;-61
2023/05/29 08:41:03;;;;;;;8.73;4.15;;;;;;;;;;5053868;28;20025;-61
2023/05/29 08:43:31;;;;;;;6.78;3.92;;;;;;;;;;5054164;28;20029;-60
2023/05/29 08:46:00;;;;;;;7.20;3.28;;;;;;;;;;5054729;28;20051;-61
2023/05/29 08:48:27;;;;;;;3.75;2.97;;;;;;;;;;5053733;28;20040;-61
2023/05/29 08:50:54;;;;;;;4.53;3.33;;;;;;;;;;5054297;28;20479;-61
2023/05/29 08:53:21;;;;;;;5.43;3.25;;;;;;;;;;5053617;28;20486;-61
2023/05/29 08:55:50;;;;;;;5.00;3.10;;;;;;;;;;5053649;28;20025;-61
2023/05/29 08:58:16;;;;;;;3.85;2.83;;;;;;;;;;5053538;28;20037;-61
2023/05/29 09:00:42;;;;;;;3.47;2.83;;;;;;;;;;5053665;28;20092;-61
2023/05/29 09:03:09;;;;;;;6.47;3.80;;;;;;;;;;5053665;28;20025;-61
2023/05/29 09:05:39;;;;;;;6.65;3.58;;;;;;;;;;5053536;28;20104;-61
2023/05/29 09:08:05;;;;;;;;;;;;;;;;;;5054395;28;20045;-61
2023/05/29 09:10:32;;;;;;;3.67;2.75;;;;;;;;;;5053561;28;19911;-61
2023/05/29 09:12:57;;;;;;;4.43;3.08;;;;;;;;;;5053500;28;20370;-60
2023/05/29 09:15:24;;;;;;;6.30;3.60;;;;;;;;;;5053754;28;20045;-61
2023/05/29 09:17:54;;;;;;;5.68;3.33;;;;;;;;;;5053743;28;20082;-61
2023/05/29 09:20:23;;;;;;;7.05;3.70;;;;;;;;;;5053681;28;20040;-61
2023/05/29 09:22:55;;;;;;;6.25;3.33;;;;;;;;;;5053371;28;20084;-60
2023/05/29 09:25:23;;;;;;;5.75;3.65;;;;;;;;;;5053969;28;20021;-61
2023/05/29 09:27:52;;;;;;;4.60;2.88;;;;;;;;;;5053592;28;20037;-61
2023/05/29 09:30:33;;;;;;;4.85;2.95;;;;;;;;;;5053726;28;20048;-61
2023/05/29 09:33:02;;;;;;;4.93;3.38;;;;;;;;;;5053314;28;20021;-61
2023/05/29 09:35:37;;;;;;;3.80;2.95;;;;;;;;;;5053061;28;20475;-60
2023/05/29 09:38:04;;;;;;;5.22;3.70;;;;;;;;;;5056368;28;20033;-61
2023/05/29 09:40:31;;;;;;;5.20;3.45;;;;;;;;;;5057794;28;20033;-61
2023/05/29 09:43:03;;;;;;;5.72;4.18;;;;;;;;;;5057114;28;20507;-61
2023/05/29 09:45:29;;;;;;;4.80;3.33;;;;;;;;;;5057809;28;20059;-61
2023/05/29 09:47:55;;;;;;;7.30;4.13;;;;;;;;;;5057618;28;20060;-61
2023/05/29 09:50:26;;;;;;;6.65;3.83;;;;;;;;;;5056692;28;20074;-61
2023/05/29 09:52:53;;;;;;;4.85;3.10;;;;;;;;;;5057452;28;20028;-61
2023/05/29 09:55:21;;;;;;;7.18;3.30;;;;;;;;;;5056862;28;20029;-61
2023/05/29 09:57:48;;;;;;;5.70;3.60;;;;;;;;;;5057449;28;20035;-61
2023/05/29 10:00:16;;;;;;;5.00;3.58;;;;;;;;;;5056711;28;20415;-60
2023/05/29 10:02:42;;;;;;;4.50;3.28;;;;;;;;;;5057368;28;20020;-61
2023/05/29 10:05:09;;;;;;;6.10;3.40;;;;;;;;;;5056499;28;20033;-60
2023/05/29 10:07:36;;;;;;;6.35;3.22;;;;;;;;;;5057457;28;20033;-60
2023/05/29 10:10:07;;;;;;;5.55;3.85;;;;;;;;;;5056729;28;20021;-63
2023/05/29 10:12:35;;;;;;;4.25;3.05;;;;;;;;;;5056542;28;20025;-62
2023/05/29 10:15:02;;;;;;;4.50;2.97;;;;;;;;;;5056111;28;20375;-61
2023/05/29 10:17:33;;;;;;;3.90;2.78;;;;;;;;;;5056558;28;20058;-61
2023/05/29 10:20:01;;;;;;;6.40;3.15;;;;;;;;;;5056955;28;20052;-61
2023/05/29 10:22:27;;;;;;;5.82;3.50;;;;;;;;;;5056360;28;20104;-61
2023/05/29 10:24:53;;;;;;;6.47;3.35;;;;;;;;;;5056351;28;20025;-61
2023/05/29 10:27:20;;;;;;;6.32;3.30;;;;;;;;;;5056479;28;20063;-61
2023/05/29 10:29:53;;;;;;;4.57;3.33;;;;;;;;;;5056911;28;20102;-61
2023/05/29 10:32:26;;;;;;;4.78;3.10;;;;;;;;;;5057131;28;20080;-60
2023/05/29 10:34:56;;;;;;;3.72;3.03;;;;;;;;;;5056440;28;20483;-61
2023/05/29 10:37:22;;;;;;;5.63;3.05;;;;;;;;;;5056939;28;20482;-61
2023/05/29 10:39:48;;;;;;;6.60;2.80;;;;;;;;;;5056321;28;20025;-61
2023/05/29 10:42:42;;;;;;;7.78;3.35;;;;;;;;;;5055990;28;20071;-61
2023/05/29 10:45:09;;;;;;;5.97;2.50;;;;;;;;;;5056557;28;20406;-61
2023/05/29 10:47:35;;;;;;;4.03;3.30;;;;;;;;;;5055657;28;20033;-61
2023/05/29 10:50:01;;;;;;;5.95;2.78;;;;;;;;;;5056371;28;20025;-61
2023/05/29 10:52:31;;;;;;;5.10;3.33;;;;;;;;;;5056399;28;20036;-61
2023/05/29 10:54:57;;;;;;;4.03;3.00;;;;;;;;;;5055929;28;20032;-61
2023/05/29 10:57:23;;;;;;;8.43;3.25;;;;;;;;;;5055976;28;20051;-61
2023/05/29 10:59:57;;;;;;;5.60;3.00;;;;;;;;;;5055643;28;20028;-61
2023/05/29 11:02:23;;;;;;;4.40;2.90;;;;;;;;;;5056277;28;20059;-61
2023/05/29 11:05:05;;;;;;;3.85;2.78;;;;;;;;;;5055553;28;20033;-61
2023/05/29 11:07:35;;;;;;;7.80;3.10;;;;;;;;;;5056073;28;20072;-61
2023/05/29 11:10:12;;;;;;;4.72;2.45;;;;;;;;;;5055546;28;20344;-61
2023/05/29 11:12:56;;;;;;;4.28;2.72;;;;;;;;;;5056053;28;20135;-61
2023/05/29 11:15:22;;;;;;;8.73;2.80;;;;;;;;;;5056040;28;20087;-61
2023/05/29 11:17:50;;;;;;;4.70;2.70;;;;;;;;;;5055392;28;20057;-61
2023/05/29 11:20:31;;;;;;;5.03;2.63;;;;;;;;;;5055401;28;20032;-61
2023/05/29 11:23:01;;;;;;;3.72;2.40;;;;;;;;;;5055383;28;20139;-61
2023/05/29 11:25:28;;;;;;;4.30;2.30;;;;;;;;;;5055565;28;20094;-61
2023/05/29 11:27:54;;;;;;;3.22;2.08;;;;;;;;;;5055753;28;20029;-61
2023/05/29 11:30:20;;;;;;;7.22;2.95;;;;;;;;;;5055084;28;20036;-61
2023/05/29 11:32:46;;;;;;;4.18;2.65;;;;;;;;;;5055189;28;20025;-61
2023/05/29 11:35:13;;;;;;;3.85;2.70;;;;;;;;;;5055058;28;20025;-61
2023/05/29 11:37:39;;;;;;;4.15;2.88;;;;;;;;;;5055402;28;20367;-61
2023/05/29 11:40:07;;;;;;;3.97;2.28;;;;;;;;;;5055084;28;20025;-61
2023/05/29 11:42:33;;;;;;;3.97;2.72;;;;;;;;;;5055357;28;20021;-61
2023/05/29 11:45:10;;;;;;;3.15;2.10;;;;;;;;;;5055134;28;20032;-61
2023/05/29 11:47:51;;;;;;;4.57;2.28;;;;;;;;;;5055091;28;20037;-61
2023/05/29 11:50:18;;;;;;;4.70;2.35;;;;;;;;;;5054759;28;20379;-61
2023/05/29 11:52:48;;;;;;;4.78;2.30;;;;;;;;;;5054691;28;20025;-61
2023/05/29 11:55:14;;;;;;;3.28;2.50;;;;;;;;;;5054495;28;20471;-61
2023/05/29 11:57:40;;;;;;;3.33;2.10;;;;;;;;;;5054602;28;20037;-61
2023/05/29 12:00:07;;;;;;;3.55;2.35;;;;;;;;;;5054259;28;20021;-61
2023/05/29 12:02:33;;;;;;;4.18;2.28;;;;;;;;;;5054843;28;20027;-61
2023/05/29 12:05:04;;;;;;;4.05;2.42;;;;;;;;;;5054551;28;20029;-61
2023/05/29 12:07:30;;;;;;;5.65;2.65;;;;;;;;;;5055065;28;20029;-61
2023/05/29 12:09:57;;;;;;;10.57;3.10;;;;;;;;;;5054261;28;20025;-61
2023/05/29 12:12:24;;;;;;;3.60;2.63;;;;;;;;;;5054120;28;20032;-61
2023/05/29 12:14:51;;;;;;;4.80;1.52;;;;;;;;;;5054145;28;20060;-61
2023/05/29 12:17:17;;;;;;;5.53;2.00;;;;;;;;;;5054389;28;20056;-61
2023/05/29 12:19:43;;;;;;;5.25;2.65;;;;;;;;;;5054419;28;20039;-61
2023/05/29 12:22:10;;;;;;;5.53;2.15;;;;;;;;;;5054194;28;20028;-61
2023/05/29 12:24:36;;;;;;;3.58;2.50;;;;;;;;;;5054080;28;20021;-61
2023/05/29 12:27:04;;;;;;;5.07;2.70;;;;;;;;;;5055063;28;20154;-61
2023/05/29 12:29:36;;;;;;;3.78;2.53;;;;;;;;;;5054003;28;20119;-61
2023/05/29 12:32:02;;;;;;;4.40;2.05;;;;;;;;;;5052785;28;20052;-61
2023/05/29 12:34:36;;;;;;;3.83;2.20;;;;;;;;;;5054001;28;20021;-61
2023/05/29 12:37:09;;;;;;;3.90;2.75;;;;;;;;;;5054493;28;20032;-61
2023/05/29 12:39:36;;;;;;;3.97;2.40;;;;;;;;;;5054246;28;20135;-61
2023/05/29 12:42:02;;;;;;;5.00;2.70;;;;;;;;;;5053801;28;20021;-61
2023/05/29 12:44:28;;;;;;;4.88;2.25;;;;;;;;;;5053850;28;20032;-61
2023/05/29 12:46:57;;;;;;;3.92;2.75;;;;;;;;;;5053918;28;20025;-61
2023/05/29 12:49:25;;;;;;;3.65;1.65;;;;;;;;;;5053353;28;20532;-61
2023/05/29 12:51:52;;;;;;;3.22;2.13;;;;;;;;;;5053593;28;20120;-61
2023/05/29 12:54:18;;;;;;;5.18;2.45;;;;;;;;;;5053757;28;20029;-61
2023/05/29 12:56:46;;;;;;;3.90;2.22;;;;;;;;;;5053793;28;20079;-61
2023/05/29 12:59:12;;;;;;;3.40;2.03;;;;;;;;;;5053708;28;20017;-61
2023/05/29 13:01:38;;;;;;;7.68;2.65;;;;;;;;;;5053668;28;20040;-61
2023/05/29 13:04:06;;;;;;;3.75;2.50;;;;;;;;;;5053606;28;20021;-61
2023/05/29 13:06:32;;;;;;;3.13;2.22;;;;;;;;;;5053758;28;20516;-61
2023/05/29 13:08:58;;;;;;;3.05;1.80;;;;;;;;;;5053435;28;20041;-61
2023/05/29 13:11:25;;;;;;;3.88;2.58;;;;;;;;;;5054018;28;20528;-61
2023/05/29 13:13:51;;;;;;;3.40;1.98;;;;;;;;;;5057887;28;20106;-61
2023/05/29 13:16:17;;;;;;;3.78;2.35;;;;;;;;;;5058288;28;20111;-61
2023/05/29 13:18:43;;;;;;;3.95;2.05;;;;;;;;;;5057669;28;20025;-61
2023/05/29 13:21:10;;;;;;;2.97;2.38;;;;;;;;;;5058328;28;20355;-61
2023/05/29 13:23:36;;;;;;;5.88;2.50;;;;;;;;;;5057575;28;20017;-61
2023/05/29 13:26:02;;;;;;;3.80;2.10;;;;;;;;;;5057509;28;20094;-61
2023/05/29 13:28:28;;;;;;;3.40;2.88;;;;;;;;;;5057332;28;20382;-61
2023/05/29 13:30:54;;;;;;;7.70;2.33;;;;;;;;;;5057467;28;20036;-60
2023/05/29 13:33:20;;;;;;;8.95;3.55;;;;;;;;;;5056910;28;20086;-61
2023/05/29 13:35:46;;;;;;;4.05;2.42;;;;;;;;;;5056845;28;20017;-61
2023/05/29 13:38:12;;;;;;;2.85;2.08;;;;;;;;;;5056764;28;20025;-61
2023/05/29 13:40:38;;;;;;;3.95;2.60;;;;;;;;;;5056775;28;20071;-61
2023/05/29 13:43:04;;;;;;;3.40;2.80;;;;;;;;;;5056134;28;20443;-61
2023/05/29 13:45:30;;;;;;;8.98;2.17;;;;;;;;;;5056866;28;20455;-61
2023/05/29 13:47:56;;;;;;;3.78;2.03;;;;;;;;;;5057503;28;20459;-61
2023/05/29 13:50:23;;;;;;;4.28;2.20;;;;;;;;;;5056635;28;20028;-61
2023/05/29 13:52:49;;;;;;;4.38;2.70;;;;;;;;;;5056856;28;20131;-61
2023/05/29 13:55:15;;;;;;;3.15;2.42;;;;;;;;;;5056980;28;20033;-61
2023/05/29 13:57:42;;;;;;;3.67;2.55;;;;;;;;;;5056866;28;20021;-61
2023/05/29 14:00:09;;;;;;;4.70;2.60;;;;;;;;;;5056680;28;20104;-61
2023/05/29 14:02:35;;;;;;;4.07;2.58;;;;;;;;;;5056706;28;20036;-61
2023/05/29 14:05:01;;;;;;;3.13;2.30;;;;;;;;;;5056465;28;20021;-61
2023/05/29 14:07:27;;;;;;;3.92;2.70;;;;;;;;;;5056363;28;20051;-61
2023/05/29 14:09:53;;;;;;;5.45;2.50;;;;;;;;;;5056485;28;20017;-61
2023/05/29 14:12:19;;;;;;;4.50;2.50;;;;;;;;;;5056128;28;20032;-61
2023/05/29 14:14:45;;;;;;;3.50;1.83;;;;;;;;;;5055950;28;20052;-61
2023/05/29 14:17:12;;;;;;;3.33;2.47;;;;;;;;;;5056501;28;20021;-61
2023/05/29 14:19:38;;;;;;;3.45;2.28;;;;;;;;;;5056583;28;20033;-61
2023/05/29 14:22:04;;;;;;;4.47;2.60;;;;;;;;;;5056003;28;20047;-61
2023/05/29 14:24:30;;;;;;;7.35;2.60;;;;;;;;;;5056573;28;20466;-61
2023/05/29 14:26:56;;;;;;;3.40;2.38;;;;;;;;;;5056789;28;20028;-61
2023/05/29 14:29:22;;;;;;;4.55;2.85;;;;;;;;;;5056077;28;20096;-61
2023/05/29 14:31:48;;;;;;;5.93;2.63;;;;;;;;;;5055977;28;20028;-61
2023/05/29 14:34:14;;;;;;;3.17;2.40;;;;;;;;;;5056311;28;20098;-61
2023/05/29 14:36:44;;;;;;;5.97;2.97;;;;;;;;;;5056840;28;20479;-61
2023/05/29 14:39:10;;;;;;;3.13;2.58;;;;;;;;;;5056131;28;20032;-61
2023/05/29 14:41:36;;;;;;;4.03;2.60;;;;;;;;;;5056147;28;20028;-61